アムステルダム/スキポール の空港の天気 - METARとTAF

スキポール空港(アムステルダム) ( EHAM / AMS ) - オランダ アムステルダム
飛行場実況気象(Metar)
観測時間10/16 09:55 CEST (10/16 07:55 UTC)
風向・風速南 5m/s
視程10km以上
天気現象
少しの雲 雲底高度 210m
気温12℃
湿度88%
気圧1007hPa
METAREHAM 160755Z 17009KT 9999 FEW007 12/10 Q1007 NOSIG
過去の天気等 Google飛行場航空写真 Wunderground天気予報

過去48時間のMETAR

飛行場予報(TAF)
発表時間: 10/16 07:21 CEST (10/16 05:21 UTC)
予報対象時間: 16日8時 CEST ~ 17日14時 CEST
風向・風速南 5m/s
視程10km以上
全天の4割程度の雲 雲底高度 610m
16日8時 CEST ~ 16日10時 CEST に 確率 40% で一時的に
全天の8割程度の雲 雲底高度 240m
16日11時 CEST ~ 16日14時 CEST に徐々に
風向・風速南 7m/s
視程7000m
天気現象弱い雨
全天の8割程度の雲 雲底高度 370m
16日14時 CEST ~ 16日17時 CEST に徐々に
風向・風速南南西 8m/s
16日14時 CEST ~ 17日2時 CEST に一時的に
視程3500m
天気現象霧雨雨
全天の8割程度の雲 雲底高度 210m
17日2時 CEST ~ 17日5時 CEST に徐々に
風向・風速南南西 3m/s
視程10km以上
天気現象運行に影響にある天気現象が終了
全天の4割程度の雲 雲底高度 460m
全天の8割程度の雲 雲底高度 910m
TAF COR EHAM 160521Z 1606/1712 19010KT 9999 SCT020
PROB40 TEMPO 1606/1608 BKN008
BECMG 1609/1612 17014KT 7000 -RA BKN012
BECMG 1612/1615 20015KT
TEMPO 1612/1624 3500 DZRA BKN007
BECMG 1700/1703 21005KT 9999 NSW SCT015 BKN030